Time;durP1;ratioP1;P1;durP2;ratioP2;P2;SDS_P1;SDS_P2;PMS_P1;PMS_P2;Temp;Humidity;BMP_temperature;BMP_pressure;BME280_temperature;BME280_humidity;BME280_pressure;Samples;Min_cycle;Max_cycle;Signal;HPM_P1;HPM_P2
2024/03/07 00:02:51;;;;;;;12.43;7.35;;;;;;;;;;7741019;23;24762;-82
2024/03/07 00:06:00;;;;;;;11.13;7.22;;;;;;;;;;7758722;22;24379;-83
2024/03/07 00:09:06;;;;;;;12.00;7.60;;;;;;;;;;7741871;23;24441;-84
2024/03/07 00:12:16;;;;;;;11.82;7.75;;;;;;;;;;7759047;23;24453;-86
2024/03/07 00:15:21;;;;;;;13.17;7.70;;;;;;;;;;7758313;23;24387;-82
2024/03/07 00:18:22;;;;;;;14.23;7.70;;;;;;;;;;7759037;23;24405;-84
2024/03/07 00:21:24;;;;;;;11.00;7.47;;;;;;;;;;7758590;23;24381;-88
2024/03/07 00:24:29;;;;;;;12.85;7.20;;;;;;;;;;7759348;23;24406;-81
2024/03/07 00:27:35;;;;;;;9.57;7.03;;;;;;;;;;7757754;23;24371;-86
2024/03/07 00:30:50;;;;;;;10.70;6.80;;;;;;;;;;7756158;23;24374;-83
2024/03/07 00:33:56;;;;;;;13.35;7.78;;;;;;;;;;7741809;23;24574;-84
2024/03/07 00:37:10;;;;;;;12.27;6.80;;;;;;;;;;7757761;23;24410;-81
2024/03/07 00:40:13;;;;;;;12.88;7.75;;;;;;;;;;7758582;23;24389;-85
2024/03/07 00:43:16;;;;;;;9.65;6.90;;;;;;;;;;7740754;23;24425;-85
2024/03/07 00:46:17;;;;;;;10.55;6.78;;;;;;;;;;7758385;23;24374;-85
2024/03/07 00:49:28;;;;;;;11.20;7.75;;;;;;;;;;7758522;23;24389;-84
2024/03/07 00:52:30;;;;;;;11.80;6.95;;;;;;;;;;7759040;23;24785;-85
2024/03/07 00:55:32;;;;;;;11.13;7.30;;;;;;;;;;7756883;23;24398;-84
2024/03/07 00:58:35;;;;;;;10.10;7.40;;;;;;;;;;7758084;23;24870;-80
2024/03/07 01:01:45;;;;;;;14.97;7.50;;;;;;;;;;7757286;23;24370;-86
2024/03/07 01:04:50;;;;;;;9.80;7.20;;;;;;;;;;7756609;22;24815;-84
2024/03/07 01:07:52;;;;;;;9.43;6.80;;;;;;;;;;7757923;23;24370;-82
2024/03/07 01:10:54;;;;;;;11.80;7.78;;;;;;;;;;7759319;23;24371;-79
2024/03/07 01:14:00;;;;;;;12.13;7.15;;;;;;;;;;7757919;23;24567;-87
2024/03/07 01:17:02;;;;;;;11.80;7.70;;;;;;;;;;7758431;23;24366;-83
2024/03/07 01:20:04;;;;;;;13.10;8.23;;;;;;;;;;7758625;23;24793;-83
2024/03/07 01:23:10;;;;;;;12.65;8.45;;;;;;;;;;7743109;23;24381;-81
2024/03/07 01:26:12;;;;;;;15.70;8.35;;;;;;;;;;7758490;23;24393;-84
2024/03/07 01:29:15;;;;;;;13.80;8.20;;;;;;;;;;7758532;23;24386;-83
2024/03/07 01:32:19;;;;;;;14.68;8.80;;;;;;;;;;7758377;23;24438;-85
2024/03/07 01:35:27;;;;;;;13.13;8.70;;;;;;;;;;7757578;23;24382;-83
2024/03/07 01:38:29;;;;;;;13.63;9.35;;;;;;;;;;7757983;23;24429;-84
2024/03/07 01:41:31;;;;;;;15.60;8.90;;;;;;;;;;7759084;23;24763;-84
2024/03/07 01:44:37;;;;;;;13.68;8.80;;;;;;;;;;7757887;23;24367;-83
2024/03/07 01:47:39;;;;;;;13.07;9.15;;;;;;;;;;7758346;23;24385;-83
2024/03/07 01:50:41;;;;;;;14.07;8.98;;;;;;;;;;7757323;23;24385;-87
2024/03/07 01:53:43;;;;;;;12.33;9.00;;;;;;;;;;7755882;23;24386;-79
2024/03/07 01:56:44;;;;;;;15.00;8.82;;;;;;;;;;7756355;23;24375;-80
2024/03/07 01:59:51;;;;;;;13.93;8.82;;;;;;;;;;7755315;23;24386;-82
2024/03/07 02:02:57;;;;;;;13.57;9.13;;;;;;;;;;7756532;23;24405;-86
2024/03/07 02:06:00;;;;;;;14.38;8.93;;;;;;;;;;7741910;22;24478;-85
2024/03/07 02:09:05;;;;;;;13.10;8.73;;;;;;;;;;7755915;23;24637;-87
2024/03/07 02:12:08;;;;;;;13.52;8.82;;;;;;;;;;7757909;23;24986;-84
2024/03/07 02:15:15;;;;;;;12.55;8.52;;;;;;;;;;7757585;23;24830;-84
2024/03/07 02:18:16;;;;;;;13.85;8.70;;;;;;;;;;7757300;23;24386;-81
2024/03/07 02:21:23;;;;;;;11.95;8.75;;;;;;;;;;7756457;23;24390;-80
2024/03/07 02:24:31;;;;;;;12.55;8.52;;;;;;;;;;7757270;23;24409;-79
2024/03/07 02:27:37;;;;;;;13.55;8.52;;;;;;;;;;7755145;23;24409;-80
2024/03/07 02:30:41;;;;;;;11.53;8.20;;;;;;;;;;7756742;23;24746;-83
2024/03/07 02:33:43;;;;;;;12.55;8.55;;;;;;;;;;7757709;23;24374;-80
2024/03/07 02:36:51;;;;;;;12.95;8.77;;;;;;;;;;7757804;23;24414;-85
2024/03/07 02:39:56;;;;;;;13.35;8.18;;;;;;;;;;7757559;23;24371;-83
2024/03/07 02:43:09;;;;;;;12.23;8.55;;;;;;;;;;7757495;23;24914;-82
2024/03/07 02:46:13;;;;;;;12.20;8.50;;;;;;;;;;7746027;23;24385;-87
2024/03/07 02:49:17;;;;;;;13.50;8.68;;;;;;;;;;7759000;23;24391;-81
2024/03/07 02:52:21;;;;;;;12.55;8.43;;;;;;;;;;7759829;23;24649;-81
2024/03/07 02:55:26;;;;;;;12.35;8.27;;;;;;;;;;7760225;23;24652;-82
2024/03/07 02:58:41;;;;;;;11.48;8.20;;;;;;;;;;7760002;23;24455;-86
2024/03/07 03:01:43;;;;;;;10.65;7.85;;;;;;;;;;7759102;23;24367;-81
2024/03/07 03:04:48;;;;;;;12.37;8.27;;;;;;;;;;7759445;22;24378;-83
2024/03/07 03:07:54;;;;;;;12.57;8.27;;;;;;;;;;7759725;23;24749;-82
2024/03/07 03:10:58;;;;;;;11.05;8.13;;;;;;;;;;7758099;23;24383;-81
2024/03/07 03:14:03;;;;;;;11.68;8.32;;;;;;;;;;7759159;23;24432;-84
2024/03/07 03:17:08;;;;;;;11.05;8.07;;;;;;;;;;7758213;23;24815;-84
2024/03/07 03:20:24;;;;;;;12.18;8.30;;;;;;;;;;7759251;23;24434;-81
2024/03/07 03:23:27;;;;;;;12.73;8.20;;;;;;;;;;7759713;23;24375;-83
2024/03/07 03:26:31;;;;;;;12.48;8.30;;;;;;;;;;7760178;23;24367;-81
2024/03/07 03:29:51;;;;;;;12.55;8.40;;;;;;;;;;7759489;23;24394;-85
2024/03/07 03:32:53;;;;;;;13.23;8.27;;;;;;;;;;7758288;23;24374;-81
2024/03/07 03:35:55;;;;;;;13.88;8.13;;;;;;;;;;7758796;23;24390;-84
2024/03/07 03:38:58;;;;;;;11.27;8.35;;;;;;;;;;7760083;23;24425;-83
2024/03/07 03:42:12;;;;;;;12.10;8.70;;;;;;;;;;7746330;23;24379;-86
2024/03/07 03:45:26;;;;;;;11.57;8.32;;;;;;;;;;7755998;23;24385;-80
2024/03/07 03:48:29;;;;;;;13.10;8.35;;;;;;;;;;7740158;23;24398;-81
2024/03/07 03:51:44;;;;;;;13.70;8.88;;;;;;;;;;7759349;23;24381;-79
2024/03/07 03:55:05;;;;;;;14.95;9.07;;;;;;;;;;7755858;23;24454;-82
2024/03/07 03:58:13;;;;;;;15.15;9.48;;;;;;;;;;7758415;23;24587;-80
2024/03/07 04:01:16;;;;;;;13.05;8.98;;;;;;;;;;7758866;23;24366;-80
2024/03/07 04:04:21;;;;;;;14.37;9.53;;;;;;;;;;7758770;22;24849;-82
2024/03/07 04:07:22;;;;;;;14.80;9.23;;;;;;;;;;7760215;23;24378;-81
2024/03/07 04:10:26;;;;;;;13.45;9.55;;;;;;;;;;7758825;23;24990;-84
2024/03/07 04:13:28;;;;;;;14.45;9.80;;;;;;;;;;7759419;23;24389;-84
2024/03/07 04:16:33;;;;;;;15.38;9.48;;;;;;;;;;7758761;23;24393;-82
2024/03/07 04:19:38;;;;;;;15.85;9.55;;;;;;;;;;7759455;23;24367;-82
2024/03/07 04:22:40;;;;;;;12.95;9.48;;;;;;;;;;7756749;23;24367;-81
2024/03/07 04:25:46;;;;;;;12.60;9.57;;;;;;;;;;7758376;23;24381;-83
2024/03/07 04:28:48;;;;;;;13.30;9.57;;;;;;;;;;7759392;23;24602;-89
2024/03/07 04:31:50;;;;;;;15.90;10.30;;;;;;;;;;7759641;22;24375;-82
2024/03/07 04:34:52;;;;;;;14.13;10.00;;;;;;;;;;7759042;23;24431;-82
2024/03/07 04:37:54;;;;;;;15.90;9.90;;;;;;;;;;7759253;22;24409;-83
2024/03/07 04:40:57;;;;;;;14.80;10.23;;;;;;;;;;7758638;23;24784;-81
2024/03/07 04:44:12;;;;;;;14.48;9.90;;;;;;;;;;7757025;23;24409;-82
2024/03/07 04:47:31;;;;;;;14.23;10.45;;;;;;;;;;7758483;23;24762;-86
2024/03/07 04:50:36;;;;;;;13.87;9.83;;;;;;;;;;7752256;23;24371;-82
2024/03/07 04:53:41;;;;;;;14.63;10.13;;;;;;;;;;7759015;23;24370;-80
2024/03/07 04:56:49;;;;;;;13.73;9.50;;;;;;;;;;7758663;23;24395;-80
2024/03/07 04:59:56;;;;;;;13.90;9.27;;;;;;;;;;7759657;23;24402;-84
2024/03/07 05:02:58;;;;;;;13.25;9.70;;;;;;;;;;7758669;23;24379;-82
2024/03/07 05:06:00;;;;;;;16.80;9.63;;;;;;;;;;7758089;22;24743;-83
2024/03/07 05:09:02;;;;;;;13.77;9.50;;;;;;;;;;7758566;23;24367;-84
2024/03/07 05:12:09;;;;;;;15.18;9.65;;;;;;;;;;7727946;23;24378;-83
2024/03/07 05:15:13;;;;;;;13.95;9.43;;;;;;;;;;7758906;23;24780;-86
2024/03/07 05:18:16;;;;;;;13.27;9.20;;;;;;;;;;7758657;23;24370;-83
2024/03/07 05:21:37;;;;;;;15.05;9.40;;;;;;;;;;7759187;23;24749;-80
2024/03/07 05:24:39;;;;;;;18.20;10.15;;;;;;;;;;7758314;23;24375;-85
2024/03/07 05:27:42;;;;;;;13.40;9.00;;;;;;;;;;7757798;23;24777;-82
2024/03/07 05:30:47;;;;;;;11.55;8.73;;;;;;;;;;7757999;23;24808;-84
2024/03/07 05:33:55;;;;;;;13.43;9.05;;;;;;;;;;7758104;23;24451;-87
2024/03/07 05:37:06;;;;;;;14.20;8.48;;;;;;;;;;7757129;23;24808;-82
2024/03/07 05:40:14;;;;;;;15.30;9.00;;;;;;;;;;7757737;23;24394;-83
2024/03/07 05:43:20;;;;;;;15.00;9.18;;;;;;;;;;7758081;23;24382;-80
2024/03/07 05:46:25;;;;;;;15.70;8.70;;;;;;;;;;7756798;23;24453;-85
2024/03/07 05:49:31;;;;;;;12.60;8.50;;;;;;;;;;7757170;23;24571;-82
2024/03/07 05:52:35;;;;;;;11.80;8.43;;;;;;;;;;7757681;23;24544;-86
2024/03/07 05:55:51;;;;;;;13.65;8.57;;;;;;;;;;7757177;23;24429;-82
2024/03/07 05:59:35;;;;;;;13.95;9.23;;;;;;;;;;7739358;23;24478;-86
2024/03/07 06:02:46;;;;;;;14.73;9.15;;;;;;;;;;7729993;23;24426;-83
2024/03/07 06:06:02;;;;;;;14.68;8.95;;;;;;;;;;7758490;22;24379;-85
2024/03/07 06:09:08;;;;;;;12.07;8.93;;;;;;;;;;7757091;23;24390;-84
2024/03/07 06:12:27;;;;;;;15.25;9.48;;;;;;;;;;7756474;23;24421;-83
2024/03/07 06:15:29;;;;;;;12.65;9.13;;;;;;;;;;7757516;22;24386;-84
2024/03/07 06:18:39;;;;;;;13.00;9.30;;;;;;;;;;7757111;23;24775;-86
2024/03/07 06:21:41;;;;;;;12.82;8.98;;;;;;;;;;7754281;23;24504;-80
2024/03/07 06:24:43;;;;;;;13.82;9.35;;;;;;;;;;7757486;23;24421;-87
2024/03/07 06:27:48;;;;;;;16.27;9.60;;;;;;;;;;7757798;23;24412;-86
2024/03/07 06:30:53;;;;;;;17.77;10.10;;;;;;;;;;7757516;23;24412;-85
2024/03/07 06:33:59;;;;;;;16.20;9.48;;;;;;;;;;7757176;23;24377;-87
2024/03/07 06:37:02;;;;;;;19.23;10.00;;;;;;;;;;7756563;23;24371;-82
2024/03/07 06:40:09;;;;;;;17.77;10.63;;;;;;;;;;7757317;23;24375;-81
2024/03/07 06:43:11;;;;;;;15.25;10.45;;;;;;;;;;7757063;23;24421;-82
2024/03/07 06:46:19;;;;;;;18.50;10.60;;;;;;;;;;7757242;23;24363;-85
2024/03/07 06:49:25;;;;;;;21.07;11.47;;;;;;;;;;7757462;23;24417;-81
2024/03/07 06:52:27;;;;;;;15.63;10.55;;;;;;;;;;7755835;23;24366;-82
2024/03/07 06:55:36;;;;;;;15.63;10.75;;;;;;;;;;7741511;23;24383;-84
2024/03/07 06:58:38;;;;;;;15.60;10.90;;;;;;;;;;7756761;23;24614;-87
2024/03/07 07:01:46;;;;;;;15.98;10.75;;;;;;;;;;7758501;23;24463;-88
2024/03/07 07:04:49;;;;;;;16.67;10.97;;;;;;;;;;7755506;22;24772;-86
2024/03/07 07:07:52;;;;;;;18.25;11.45;;;;;;;;;;7754843;23;24474;-85
2024/03/07 07:10:57;;;;;;;17.77;10.70;;;;;;;;;;7756697;23;24742;-80
2024/03/07 07:13:59;;;;;;;19.38;11.98;;;;;;;;;;7756470;23;24757;-82
2024/03/07 07:17:04;;;;;;;16.67;11.15;;;;;;;;;;7757282;23;24390;-85
2024/03/07 07:20:16;;;;;;;17.70;11.17;;;;;;;;;;7756806;23;24475;-82
2024/03/07 07:23:27;;;;;;;16.92;11.25;;;;;;;;;;7757695;23;24658;-82
2024/03/07 07:26:32;;;;;;;15.63;11.63;;;;;;;;;;7755745;23;24373;-80
2024/03/07 07:29:34;;;;;;;17.98;11.15;;;;;;;;;;7756438;23;25009;-84
2024/03/07 07:32:36;;;;;;;17.02;11.73;;;;;;;;;;7758937;23;24425;-85
2024/03/07 07:35:40;;;;;;;18.33;12.07;;;;;;;;;;7759001;23;24367;-83
2024/03/07 07:38:42;;;;;;;21.52;11.95;;;;;;;;;;7759212;23;24591;-82
2024/03/07 07:41:43;;;;;;;19.50;12.05;;;;;;;;;;7759592;23;24378;-83
2024/03/07 07:44:46;;;;;;;16.75;11.00;;;;;;;;;;7759927;23;24816;-82
2024/03/07 07:47:49;;;;;;;16.70;11.50;;;;;;;;;;7759136;23;24381;-83
2024/03/07 07:50:52;;;;;;;27.93;17.80;;;;;;;;;;7759275;23;24450;-83
2024/03/07 07:54:00;;;;;;;70.00;40.95;;;;;;;;;;7759652;23;24743;-85
2024/03/07 07:57:02;;;;;;;30.25;17.88;;;;;;;;;;7758640;23;24383;-83
2024/03/07 08:00:08;;;;;;;16.30;11.55;;;;;;;;;;7759645;23;24463;-83
2024/03/07 08:03:11;;;;;;;16.25;10.75;;;;;;;;;;7757243;23;24374;-81
2024/03/07 08:06:14;;;;;;;16.67;11.20;;;;;;;;;;7758453;22;24398;-82
2024/03/07 08:09:16;;;;;;;14.32;10.55;;;;;;;;;;7759277;23;24389;-81
2024/03/07 08:12:18;;;;;;;15.50;10.95;;;;;;;;;;7759581;23;24389;-82
2024/03/07 08:15:20;;;;;;;14.38;10.00;;;;;;;;;;7759174;23;24379;-83
2024/03/07 08:18:58;;;;;;;15.15;9.98;;;;;;;;;;7757092;23;24483;-83
2024/03/07 08:22:14;;;;;;;13.05;9.30;;;;;;;;;;7607631;23;24995;-86
2024/03/07 08:25:17;;;;;;;16.77;10.52;;;;;;;;;;7696271;23;24454;-85
2024/03/07 08:31:48;;;;;;;13.85;10.15;;;;;;;;;;7751453;23;24391;-81
2024/03/07 08:34:56;;;;;;;15.45;10.18;;;;;;;;;;7695888;23;24374;-84
2024/03/07 08:38:04;;;;;;;14.52;10.55;;;;;;;;;;7758227;23;24405;-82
2024/03/07 08:41:23;;;;;;;15.30;10.82;;;;;;;;;;7754338;23;24433;-82
2024/03/07 08:45:11;;;;;;;15.23;11.43;;;;;;;;;;7739692;23;24385;-85
2024/03/07 08:48:46;;;;;;;16.80;11.23;;;;;;;;;;7694592;23;24800;-84
2024/03/07 08:51:59;;;;;;;16.30;11.10;;;;;;;;;;7756987;23;24614;-86
2024/03/07 08:55:24;;;;;;;13.90;10.50;;;;;;;;;;7754962;23;24401;-86
2024/03/07 08:58:47;;;;;;;16.65;11.23;;;;;;;;;;7757964;23;24760;-83
2024/03/07 09:01:55;;;;;;;15.95;10.98;;;;;;;;;;7758601;23;24379;-85
2024/03/07 09:05:06;;;;;;;16.08;10.82;;;;;;;;;;7757788;22;24405;-85
2024/03/07 09:08:08;;;;;;;13.80;10.75;;;;;;;;;;7758455;23;24385;-83
2024/03/07 09:11:14;;;;;;;14.88;10.02;;;;;;;;;;7758320;23;24746;-85
2024/03/07 09:14:18;;;;;;;17.80;10.43;;;;;;;;;;7757786;23;24425;-86
2024/03/07 09:17:20;;;;;;;20.27;13.57;;;;;;;;;;7758161;23;24437;-84
2024/03/07 09:20:23;;;;;;;16.10;10.25;;;;;;;;;;7758062;23;24382;-84
2024/03/07 09:23:25;;;;;;;14.55;9.65;;;;;;;;;;7757657;23;24436;-82
2024/03/07 09:26:28;;;;;;;12.13;9.13;;;;;;;;;;7757833;23;24375;-83
2024/03/07 09:29:30;;;;;;;15.18;9.23;;;;;;;;;;7758380;23;24624;-81
2024/03/07 09:32:34;;;;;;;16.48;9.40;;;;;;;;;;7757440;23;25001;-82
2024/03/07 09:35:58;;;;;;;12.88;9.82;;;;;;;;;;7757181;23;24371;-82
2024/03/07 09:39:09;;;;;;;14.13;9.40;;;;;;;;;;7715537;23;24411;-85
2024/03/07 09:42:27;;;;;;;12.32;9.45;;;;;;;;;;7757719;23;24365;-82
2024/03/07 09:45:42;;;;;;;12.60;9.25;;;;;;;;;;7744230;23;24602;-83
2024/03/07 09:48:56;;;;;;;13.07;9.45;;;;;;;;;;7757786;23;24383;-83
2024/03/07 09:52:10;;;;;;;13.77;9.75;;;;;;;;;;7744337;23;24537;-83
2024/03/07 09:55:24;;;;;;;14.18;9.40;;;;;;;;;;7756586;23;24450;-84
2024/03/07 09:58:56;;;;;;;11.83;8.40;;;;;;;;;;7756005;23;24377;-84
2024/03/07 10:02:08;;;;;;;12.35;8.52;;;;;;;;;;7756585;23;24633;-82
2024/03/07 10:05:14;;;;;;;10.27;7.87;;;;;;;;;;7756348;22;24383;-85
2024/03/07 10:08:22;;;;;;;9.93;7.93;;;;;;;;;;7756392;23;24386;-83
2024/03/07 10:11:24;;;;;;;12.05;8.18;;;;;;;;;;7757935;23;24425;-85
2024/03/07 10:14:27;;;;;;;10.75;8.00;;;;;;;;;;7757419;23;24406;-86
2024/03/07 10:17:30;;;;;;;11.18;7.47;;;;;;;;;;7757786;23;24841;-83
2024/03/07 10:23:53;;;;;;;8.45;6.45;;;;;;;;;;7757184;23;24382;-82
2024/03/07 10:26:56;;;;;;;8.93;5.90;;;;;;;;;;7757349;23;24613;-82
2024/03/07 10:30:07;;;;;;;7.72;5.28;;;;;;;;;;7742757;23;24389;-85
2024/03/07 10:33:40;;;;;;;8.50;5.82;;;;;;;;;;7717409;23;24634;-84
2024/03/07 10:40:21;;;;;;;7.60;5.32;;;;;;;;;;7751453;23;24856;-85
2024/03/07 10:43:34;;;;;;;8.50;5.10;;;;;;;;;;7755700;23;24763;-83
2024/03/07 10:46:47;;;;;;;6.95;5.05;;;;;;;;;;7740953;23;24421;-85
2024/03/07 10:50:12;;;;;;;7.57;4.93;;;;;;;;;;7756618;23;24425;-85
2024/03/07 10:53:36;;;;;;;7.28;4.55;;;;;;;;;;7756037;23;24420;-87
2024/03/07 10:57:05;;;;;;;8.40;5.53;;;;;;;;;;7755532;23;24414;-85
2024/03/07 11:00:36;;;;;;;8.63;5.40;;;;;;;;;;7699659;23;24622;-85
2024/03/07 11:07:14;;;;;;;8.40;5.60;;;;;;;;;;7742199;23;24749;-83
2024/03/07 11:10:17;;;;;;;8.38;5.57;;;;;;;;;;7759915;22;24413;-84
2024/03/07 11:13:26;;;;;;;7.38;5.40;;;;;;;;;;7759695;23;24382;-85
2024/03/07 11:16:36;;;;;;;8.82;4.97;;;;;;;;;;7743782;23;24382;-84
2024/03/07 11:23:54;;;;;;;7.32;5.13;;;;;;;;;;7745016;23;24570;-83
2024/03/07 11:27:29;;;;;;;7.22;4.80;;;;;;;;;;7740336;23;24375;-83
2024/03/07 11:30:35;;;;;;;7.53;4.55;;;;;;;;;;7756266;23;24430;-84
2024/03/07 11:33:40;;;;;;;9.15;5.68;;;;;;;;;;7759234;23;24425;-82
2024/03/07 11:36:49;;;;;;;6.75;5.65;;;;;;;;;;7758798;23;24414;-83
2024/03/07 11:43:25;;;;;;;8.18;6.47;;;;;;;;;;7755791;23;24620;-85
2024/03/07 11:46:35;;;;;;;8.57;6.40;;;;;;;;;;7759451;23;24379;-84
2024/03/07 11:49:37;;;;;;;8.27;6.28;;;;;;;;;;7758603;22;24371;-84
2024/03/07 11:53:00;;;;;;;8.27;6.20;;;;;;;;;;7758402;23;24389;-85
2024/03/07 11:56:09;;;;;;;8.82;6.80;;;;;;;;;;7758633;23;24394;-84
2024/03/07 11:59:12;;;;;;;8.50;6.78;;;;;;;;;;7758548;23;24390;-84
2024/03/07 12:02:17;;;;;;;8.38;6.35;;;;;;;;;;7759035;23;24378;-84
2024/03/07 12:05:19;;;;;;;8.02;6.00;;;;;;;;;;7757549;22;24402;-84
2024/03/07 12:08:34;;;;;;;7.72;6.15;;;;;;;;;;7759376;23;24375;-85
2024/03/07 12:11:53;;;;;;;8.57;6.00;;;;;;;;;;7742171;23;24390;-84
2024/03/07 12:14:58;;;;;;;8.20;5.90;;;;;;;;;;7743435;23;24381;-83
2024/03/07 12:18:49;;;;;;;;;;;;;;;;;;;;;
2024/03/07 12:33:53;;;;;;;7.03;4.57;;;;;;;;;;7383519;23;24391;-83
2024/03/07 12:37:49;;;;;;;5.78;4.60;;;;;;;;;;7436259;23;24403;-84
2024/03/07 12:52:55;;;;;;;6.03;3.55;;;;;;;;;;7401801;23;24387;-84
2024/03/07 13:00:41;;;;;;;5.40;3.83;;;;;;;;;;7370234;24;24810;-84
2024/03/07 13:11:20;;;;;;;5.93;4.50;;;;;;;;;;7261760;24;24431;-86
2024/03/07 13:14:32;;;;;;;5.53;4.45;;;;;;;;;;7326292;24;24381;-86
2024/03/07 13:17:44;;;;;;;7.05;4.50;;;;;;;;;;7325555;24;24535;-84
2024/03/07 13:20:48;;;;;;;6.30;4.40;;;;;;;;;;7323815;24;24385;-85
2024/03/07 13:23:53;;;;;;;6.25;4.43;;;;;;;;;;7324052;24;24378;-86
2024/03/07 13:27:11;;;;;;;6.03;4.97;;;;;;;;;;7393982;24;24388;-87
2024/03/07 13:41:55;;;;;;;9.57;6.38;;;;;;;;;;7325174;24;24397;-86
2024/03/07 13:45:26;;;;;;;6.97;4.47;;;;;;;;;;7418385;23;25035;-85
2024/03/07 13:48:51;;;;;;;4.90;3.40;;;;;;;;;;7447533;23;24377;-86
2024/03/07 13:52:10;;;;;;;5.72;3.78;;;;;;;;;;7450600;23;24837;-88
2024/03/07 13:55:18;;;;;;;6.93;4.73;;;;;;;;;;7462775;23;24901;-86
2024/03/07 13:58:31;;;;;;;7.70;5.10;;;;;;;;;;7463220;23;24489;-85
2024/03/07 14:02:27;;;;;;;6.85;4.85;;;;;;;;;;7446979;23;24560;-84
2024/03/07 14:06:16;;;;;;;5.40;4.10;;;;;;;;;;7449244;23;24478;-87
2024/03/07 14:09:47;;;;;;;6.63;4.10;;;;;;;;;;7460382;23;24411;-83
2024/03/07 14:13:04;;;;;;;6.50;3.83;;;;;;;;;;7486600;23;24378;-84
2024/03/07 14:21:12;;;;;;;7.15;4.40;;;;;;;;;;7593568;23;24389;-86
2024/03/07 15:31:39;;;;;;;6.53;3.63;;;;;;;;;;7320725;23;24391;-85
2024/03/07 15:39:19;;;;;;;5.30;3.22;;;;;;;;;;7543262;23;24385;-83
2024/03/07 15:42:48;;;;;;;6.83;3.40;;;;;;;;;;7642071;23;24859;-83
2024/03/07 15:46:19;;;;;;;5.50;3.60;;;;;;;;;;7623927;23;24384;-83
2024/03/07 15:53:20;;;;;;;8.10;3.80;;;;;;;;;;7625917;23;24408;-83
2024/03/07 15:57:27;;;;;;;5.75;3.35;;;;;;;;;;7675011;23;24433;-83
2024/03/07 16:26:49;;;;;;;5.47;3.40;;;;;;;;;;7459519;23;24666;-85
2024/03/07 16:30:33;;;;;;;5.53;2.70;;;;;;;;;;7461212;23;24390;-85
2024/03/07 16:53:35;;;;;;;7.68;3.38;;;;;;;;;;7189770;24;24460;-84
2024/03/07 17:12:39;;;;;;;6.67;3.60;;;;;;;;;;7272941;24;24940;-83
2024/03/07 17:23:44;;;;;;;7.87;4.57;;;;;;;;;;7383771;23;24794;-84
2024/03/07 17:26:55;;;;;;;5.82;4.18;;;;;;;;;;7574348;23;24830;-83
2024/03/07 17:30:17;;;;;;;8.50;4.50;;;;;;;;;;7605424;23;24369;-83
2024/03/07 17:33:40;;;;;;;6.47;4.27;;;;;;;;;;7566262;23;24427;-85
2024/03/07 17:40:53;;;;;;;7.53;4.68;;;;;;;;;;7640157;23;24838;-82
2024/03/07 17:44:18;;;;;;;7.80;5.35;;;;;;;;;;7641934;23;24412;-83
2024/03/07 17:47:20;;;;;;;10.05;5.13;;;;;;;;;;7642876;23;24379;-83
2024/03/07 17:50:31;;;;;;;7.30;5.00;;;;;;;;;;7719424;23;24378;-83
2024/03/07 17:53:48;;;;;;;9.55;5.20;;;;;;;;;;7719580;23;24379;-84
2024/03/07 17:56:53;;;;;;;9.85;5.13;;;;;;;;;;7719120;23;24383;-82
2024/03/07 18:03:44;;;;;;;9.23;5.53;;;;;;;;;;7684288;23;24387;-83
2024/03/07 18:06:46;;;;;;;10.05;4.78;;;;;;;;;;7716460;23;24379;-83
2024/03/07 18:09:53;;;;;;;8.93;4.97;;;;;;;;;;7703637;23;24430;-82
2024/03/07 18:12:55;;;;;;;8.63;4.60;;;;;;;;;;7703105;23;24843;-83
2024/03/07 18:16:00;;;;;;;8.40;4.72;;;;;;;;;;7717812;23;24379;-83
2024/03/07 18:19:35;;;;;;;9.32;4.97;;;;;;;;;;7718726;23;24786;-83
2024/03/07 18:22:37;;;;;;;14.23;4.80;;;;;;;;;;7570616;23;24377;-83
2024/03/07 18:25:41;;;;;;;10.35;4.88;;;;;;;;;;7717338;23;24446;-84
2024/03/07 18:28:47;;;;;;;9.18;5.07;;;;;;;;;;7704595;23;24386;-84
2024/03/07 18:31:54;;;;;;;8.57;4.63;;;;;;;;;;7716452;23;24612;-85
2024/03/07 18:42:42;;;;;;;8.90;4.60;;;;;;;;;;7756198;22;24418;-85
2024/03/07 18:45:44;;;;;;;11.30;5.75;;;;;;;;;;7754592;23;24377;-83
2024/03/07 18:49:08;;;;;;;9.05;5.15;;;;;;;;;;7756521;23;24370;-82
2024/03/07 18:52:28;;;;;;;9.82;5.93;;;;;;;;;;7754488;23;24450;-82
2024/03/07 18:59:27;;;;;;;8.93;6.07;;;;;;;;;;7619508;23;24499;-82
2024/03/07 19:02:32;;;;;;;13.00;6.40;;;;;;;;;;7757444;23;24375;-83
2024/03/07 19:05:53;;;;;;;11.75;6.05;;;;;;;;;;7740801;22;24866;-83
2024/03/07 19:09:23;;;;;;;10.48;6.00;;;;;;;;;;7740612;23;24383;-83
2024/03/07 19:12:40;;;;;;;11.30;6.40;;;;;;;;;;7738641;23;24369;-84
2024/03/07 19:20:19;;;;;;;14.68;7.45;;;;;;;;;;7734767;23;24379;-83
2024/03/07 19:23:33;;;;;;;15.52;7.80;;;;;;;;;;7742035;23;24433;-82
2024/03/07 19:26:48;;;;;;;16.10;8.23;;;;;;;;;;7756031;23;24386;-81
2024/03/07 19:30:04;;;;;;;15.80;8.67;;;;;;;;;;7758996;23;24398;-85
2024/03/07 19:33:14;;;;;;;14.35;8.35;;;;;;;;;;7760139;23;24492;-81
2024/03/07 19:36:49;;;;;;;13.40;8.20;;;;;;;;;;7758826;23;24565;-83
2024/03/07 19:39:58;;;;;;;12.40;7.85;;;;;;;;;;7721655;23;24812;-81
2024/03/07 19:43:15;;;;;;;13.25;8.82;;;;;;;;;;7706071;23;24735;-82
2024/03/07 19:46:42;;;;;;;11.60;7.93;;;;;;;;;;7719631;23;24377;-80
2024/03/07 19:49:54;;;;;;;12.82;7.72;;;;;;;;;;7721483;23;24414;-80
2024/03/07 19:52:59;;;;;;;12.40;8.25;;;;;;;;;;7720981;23;24375;-84
2024/03/07 19:56:03;;;;;;;12.17;8.27;;;;;;;;;;7721305;23;24383;-82
2024/03/07 19:59:07;;;;;;;13.43;8.20;;;;;;;;;;7721516;23;24379;-80
2024/03/07 20:02:20;;;;;;;13.15;8.32;;;;;;;;;;7721038;23;24397;-85
2024/03/07 20:05:28;;;;;;;11.73;8.40;;;;;;;;;;7719881;23;24383;-82
2024/03/07 20:08:34;;;;;;;12.77;8.33;;;;;;;;;;7720976;23;24426;-81
2024/03/07 20:11:39;;;;;;;11.02;7.72;;;;;;;;;;7720939;23;24455;-82
2024/03/07 20:14:44;;;;;;;12.82;8.45;;;;;;;;;;7721147;23;24454;-81
2024/03/07 20:17:51;;;;;;;11.80;7.77;;;;;;;;;;7721344;23;24394;-82
2024/03/07 20:24:57;;;;;;;13.60;8.60;;;;;;;;;;7716574;23;24475;-83
2024/03/07 20:28:06;;;;;;;15.95;8.57;;;;;;;;;;7719465;23;24395;-82
2024/03/07 20:31:13;;;;;;;14.15;8.55;;;;;;;;;;7720233;23;24375;-80
2024/03/07 20:34:25;;;;;;;12.65;8.55;;;;;;;;;;7721499;23;24379;-84
2024/03/07 20:37:30;;;;;;;12.38;8.93;;;;;;;;;;7731068;23;24379;-81
2024/03/07 20:40:39;;;;;;;12.87;8.37;;;;;;;;;;7757848;23;24375;-84
2024/03/07 20:43:54;;;;;;;12.48;8.70;;;;;;;;;;7758807;23;24386;-83
2024/03/07 20:46:59;;;;;;;14.43;8.73;;;;;;;;;;7757263;23;24446;-80
2024/03/07 20:50:05;;;;;;;13.45;9.20;;;;;;;;;;7758570;23;24450;-82
2024/03/07 20:53:14;;;;;;;11.83;8.80;;;;;;;;;;7758151;23;24386;-81
2024/03/07 20:56:18;;;;;;;14.02;9.50;;;;;;;;;;7758546;23;24382;-82
2024/03/07 20:59:22;;;;;;;14.27;9.20;;;;;;;;;;7757793;23;24389;-82
2024/03/07 21:02:36;;;;;;;16.07;10.10;;;;;;;;;;7756938;23;24377;-81
2024/03/07 21:05:42;;;;;;;14.90;9.57;;;;;;;;;;7757075;22;24578;-82
2024/03/07 21:08:48;;;;;;;14.27;9.73;;;;;;;;;;7756342;23;24469;-84
2024/03/07 21:12:11;;;;;;;13.57;9.33;;;;;;;;;;7757699;23;24559;-84
2024/03/07 21:15:14;;;;;;;13.18;9.50;;;;;;;;;;7755773;23;24811;-83
2024/03/07 21:18:39;;;;;;;16.17;10.05;;;;;;;;;;7744607;23;24390;-80
2024/03/07 21:21:44;;;;;;;18.15;10.40;;;;;;;;;;7712532;23;24562;-81
2024/03/07 21:24:48;;;;;;;16.25;9.82;;;;;;;;;;7758078;23;24386;-80
2024/03/07 21:27:52;;;;;;;17.73;10.38;;;;;;;;;;7756733;23;24421;-81
2024/03/07 21:30:58;;;;;;;13.35;9.65;;;;;;;;;;7757641;23;24374;-83
2024/03/07 21:34:00;;;;;;;13.02;9.27;;;;;;;;;;7758141;23;24425;-82
2024/03/07 21:37:01;;;;;;;16.98;9.90;;;;;;;;;;7756842;23;24375;-82
2024/03/07 21:40:04;;;;;;;12.67;9.73;;;;;;;;;;7758157;23;24390;-81
2024/03/07 21:43:11;;;;;;;12.77;9.37;;;;;;;;;;7757734;23;24409;-81
2024/03/07 21:46:16;;;;;;;16.10;10.60;;;;;;;;;;7756990;23;24401;-83
2024/03/07 21:49:17;;;;;;;16.88;10.02;;;;;;;;;;7753681;23;24382;-85
2024/03/07 21:52:20;;;;;;;17.05;10.60;;;;;;;;;;7757491;23;24742;-81
2024/03/07 21:55:23;;;;;;;14.90;10.60;;;;;;;;;;7756314;23;24526;-83
2024/03/07 21:58:33;;;;;;;15.17;10.40;;;;;;;;;;7755846;23;24746;-81
2024/03/07 22:01:36;;;;;;;15.40;10.30;;;;;;;;;;7756940;23;24377;-81
2024/03/07 22:04:38;;;;;;;14.05;10.00;;;;;;;;;;7756613;22;24620;-82
2024/03/07 22:07:46;;;;;;;14.43;10.13;;;;;;;;;;7757417;23;24409;-81
2024/03/07 22:11:10;;;;;;;16.85;10.73;;;;;;;;;;7742319;23;24386;-81
2024/03/07 22:14:29;;;;;;;18.33;10.57;;;;;;;;;;7757500;23;24383;-82
2024/03/07 22:17:31;;;;;;;15.55;11.02;;;;;;;;;;7756981;23;24450;-79
2024/03/07 22:20:35;;;;;;;18.65;11.02;;;;;;;;;;7758221;23;24387;-79
2024/03/07 22:23:42;;;;;;;15.93;10.95;;;;;;;;;;7757182;22;24381;-83
2024/03/07 22:26:46;;;;;;;14.65;10.93;;;;;;;;;;7749718;23;24375;-82
2024/03/07 22:29:56;;;;;;;18.23;11.20;;;;;;;;;;7738615;23;24394;-82
2024/03/07 22:33:07;;;;;;;19.88;11.15;;;;;;;;;;7756158;23;24546;-82
2024/03/07 22:36:10;;;;;;;16.27;11.27;;;;;;;;;;7755858;23;24458;-83
2024/03/07 22:39:12;;;;;;;17.13;11.60;;;;;;;;;;7756799;23;24379;-80
2024/03/07 22:42:14;;;;;;;17.98;11.27;;;;;;;;;;7757394;23;24390;-82
2024/03/07 22:45:18;;;;;;;16.63;11.27;;;;;;;;;;7756275;23;24379;-83
2024/03/07 22:51:55;;;;;;;18.43;12.23;;;;;;;;;;7752760;23;24359;-83